Terminal Aerodrome Forecast
Issued by NWS Buffalo, NY

Home | Current Version | Previous Version | Text Only | Print | Product List | Glossary On
Versions: 1 2 3 4 5 6 7 8 9 10 11 12 13 14 15 16 17 18 19 20 21 22 23 24 25
000
FTUS41 KBUF 300400 AAB
TAFROC
TAF AMD
KROC 300438Z 3005/3024 26010KT 2SM -SN SCT007 OVC015
      TEMPO 3005/3007 BKN007
     FM300700 29012KT 4SM -SHSN BR SCT007 OVC015
     FM301200 30015G25KT 4SM -SHSN SCT007 OVC015=

USA.gov is the U.S. government's official web portal to all federal, state and local government web resources and services.